Decoded Metar for LEVS (CUATRO VIENTOS in SPAIN) (IATA:N/A) | Meteo·Mobile Aviation Weather
aviador You're here:

LEVS Decoded Metar

CUATRO VIENTOS in SPAIN
Report Time2019-07-24 05:30:00
UTC Time2019-07-24 05:48:37
Flight Rules vfr VFR
WindVRB at 02 kt
Visibility9999 m
Phenomena:N/A
Clouds:N/A
Expected CloudBase > 3,600 ft AGL from Temp-Dew spread
CeilingNone
Temp22°C (ISA +11)
Dew Point13°C (57% RH)
QNH1018 hPa
Density Alt3,625 ft
Elevation2,254 ft
Report Wrong Elevation
Raw Report
METAR LEVS 240530Z VRB02KT CAVOK 22/13 Q1018=

Extra information for LEVS:More info

Metar Taf Metar & Taf Last 4 Metars F.Rules Stats Wind Profile Meteogram Temp Stats Airport Information Weather charts Add Link Nearby VenuesMetar ALERT Operation Metar Decoded Social comments